| time (UTC) | temp F | wind direction | speed knots | gust knots | rain 1hr in | rain 24hr in | rain mn in | humidity % | barometer mb |
| 20260504221012 | 80 | 185 | 0.9 | 5.2 | 0.00 | 0.00 | 0.00 | 49 | 1002.6 |
| 20260504220510 | 80 | 158 | 0.9 | 4.3 | 0.00 | 0.00 | 0.00 | 48 | 1002.5 |
| 20260504220018 | 80 | 200 | 0.9 | 7.0 | 0.00 | 0.00 | 0.00 | 48 | 1002.6 |
| 20260504215505 | 81 | 225 | 2.6 | 7.0 | 0.00 | 0.00 | 0.00 | 46 | 1002.6 |
| 20260504215008 | 81 | 182 | 1.7 | 8.7 | 0.00 | 0.00 | 0.00 | 50 | 1002.5 |
| 20260504214527 | 81 | 249 | 3.5 | 11.3 | 0.00 | 0.00 | 0.00 | 47 | 1002.5 |
| 20260504214010 | 81 | 150 | 2.6 | 11.3 | 0.00 | 0.00 | 0.00 | 46 | 1002.6 |
| 20260504213510 | 81 | 127 | 1.7 | 6.1 | 0.00 | 0.00 | 0.00 | 47 | 1002.6 |
| 20260504213024 | 81 | 86 | 2.6 | 8.7 | 0.00 | 0.00 | 0.00 | 46 | 1002.7 |
| 20260504212508 | 81 | 273 | 3.5 | 9.6 | 0.00 | 0.00 | 0.00 | 48 | 1002.7 |
| 20260504212013 | 81 | 227 | 1.7 | 9.6 | 0.00 | 0.00 | 0.00 | 49 | 1002.7 |
| 20260504211528 | 81 | 261 | 3.5 | 9.6 | 0.00 | 0.00 | 0.00 | 49 | 1002.7 |
| 20260504211009 | 81 | 222 | 3.5 | 7.0 | 0.00 | 0.00 | 0.00 | 48 | 1002.9 |
| 20260504210509 | 81 | 197 | 1.7 | 5.2 | 0.00 | 0.00 | 0.00 | 50 | 1002.9 |
| 20260504210035 | 81 | 211 | 0.9 | 7.0 | 0.00 | 0.00 | 0.00 | 54 | 1002.7 |
| 20260504205511 | 80 | 228 | 3.5 | 7.0 | 0.00 | 0.00 | 0.00 | 52 | 1002.8 |
| 20260504205010 | 79 | 128 | 1.7 | 6.1 | 0.00 | 0.00 | 0.00 | 53 | 1002.7 |
| 20260504204529 | 79 | 186 | 0.9 | 6.1 | 0.00 | 0.00 | 0.00 | 55 | 1002.8 |
| 20260504204008 | 79 | 229 | 1.7 | 12.2 | 0.00 | 0.00 | 0.00 | 56 | 1002.9 |
| 20260504203510 | 79 | 198 | 4.3 | 12.2 | 0.00 | 0.00 | 0.00 | 52 | 1003.1 |
| 20260504203027 | 79 | 217 | 1.7 | 8.7 | 0.00 | 0.00 | 0.00 | 55 | 1003.1 |
| 20260504202509 | 78 | 72 | 3.5 | 7.8 | 0.00 | 0.00 | 0.00 | 57 | 1003.2 |
| 20260504202008 | 78 | 234 | 1.7 | 6.1 | 0.00 | 0.00 | 0.00 | 57 | 1003.3 |
| 20260504201525 | 77 | 175 | 1.7 | 7.0 | 0.00 | 0.00 | 0.00 | 59 | 1003.3 |
| 20260504201008 | 76 | 242 | 1.7 | 7.0 | 0.00 | 0.00 | 0.00 | 56 | 1003.4 |
| 20260504200508 | 78 | 227 | 1.7 | 6.1 | 0.00 | 0.00 | 0.00 | 58 | 1003.5 |
| 20260504200026 | 77 | 302 | 2.6 | 9.6 | 0.00 | 0.00 | 0.00 | 59 | 1003.7 |
| 20260504195505 | 76 | 129 | 1.7 | 9.6 | 0.00 | 0.00 | 0.00 | 60 | 1003.8 |
| 20260504195006 | 75 | 138 | 0.9 | 5.2 | 0.00 | 0.00 | 0.00 | 65 | 1003.9 |
| 20260504194516 | 74 | 239 | 1.7 | 6.1 | 0.00 | 0.00 | 0.00 | 62 | 1004.0 |
| 20260504194007 | 73 | 132 | 0.9 | 6.1 | 0.00 | 0.00 | 0.00 | 69 | 1004.0 |
| 20260504193508 | 72 | 193 | 1.7 | 6.1 | 0.00 | 0.00 | 0.00 | 64 | 1004.0 |
| 20260504193024 | 72 | 115 | 0.9 | 2.6 | 0.00 | 0.00 | 0.00 | 65 | 1004.0 |
| 20260504192510 | 71 | 139 | 0.9 | 5.2 | 0.00 | 0.00 | 0.00 | 67 | 1004.1 |
| 20260504192009 | 72 | 116 | 0.9 | 6.1 | 0.00 | 0.00 | 0.00 | 65 | 1004.3 |
| 20260504191503 | 72 | 215 | 1.7 | 6.1 | 0.00 | 0.00 | 0.00 | 63 | 1004.5 |
| 20260504191006 | 72 | 250 | 1.7 | 6.1 | 0.00 | 0.00 | 0.00 | 68 | 1004.4 |
| 20260504190506 | 71 | 170 | 1.7 | 6.1 | 0.00 | 0.00 | 0.00 | 66 | 1004.3 |
| 20260504190009 | 69 | 214 | 1.7 | 9.6 | 0.00 | 0.00 | 0.00 | 70 | 1004.0 |
| 20260504185507 | 66 | 229 | 2.6 | 9.6 | 0.00 | 0.00 | 0.00 | 71 | 1003.8 |
| 20260504185005 | 65 | 195 | 1.7 | 7.8 | 0.00 | 0.00 | 0.00 | 72 | 1003.7 |
| 20260504184516 | 65 | 173 | 4.3 | 8.7 | 0.00 | 0.00 | 0.00 | 71 | 1003.5 |
| 20260504184007 | 65 | 114 | 2.6 | 8.7 | 0.00 | 0.00 | 0.00 | 71 | 1004.0 |
| 20260504183512 | 65 | 139 | 2.6 | 8.7 | 0.00 | 0.00 | 0.00 | 71 | 1004.6 |
| 20260504183020 | 66 | 205 | 0.9 | 7.8 | 0.00 | 0.00 | 0.00 | 70 | 1004.7 |
| 20260504182508 | 66 | 209 | 0.9 | 5.2 | 0.00 | 0.00 | 0.00 | 66 | 1004.8 |
| 20260504182009 | 67 | 180 | 1.7 | 4.3 | 0.00 | 0.00 | 0.00 | 66 | 1005.2 |
| 20260504181521 | 67 | 194 | 0.9 | 3.5 | 0.00 | 0.00 | 0.00 | 65 | 1005.4 |
| 20260504181011 | 67 | 223 | 1.7 | 8.7 | 0.00 | 0.00 | 0.00 | 65 | 1005.3 |
| 20260504180512 | 67 | 148 | 2.6 | 8.7 | 0.00 | 0.00 | 0.00 | 65 | 1005.1 |
| 20260504180008 | 68 | 158 | 1.7 | 6.1 | 0.00 | 0.00 | 0.00 | 66 | 1005.0 |
| 20260504175506 | 68 | 215 | 1.7 | 6.1 | 0.00 | 0.00 | 0.00 | 64 | 1005.0 |
| 20260504175004 | 68 | 140 | 0.9 | 5.2 | 0.00 | 0.00 | 0.00 | 65 | 1005.1 |
| 20260504174511 | 68 | 215 | 1.7 | 4.3 | 0.00 | 0.00 | 0.00 | 65 | 1005.2 |
| 20260504174004 | 68 | 302 | 1.7 | 5.2 | 0.00 | 0.00 | 0.00 | 63 | 1005.2 |
| 20260504173506 | 68 | 223 | 0.9 | 7.0 | 0.00 | 0.00 | 0.00 | 63 | 1005.2 |
| 20260504173019 | 69 | 128 | 1.7 | 7.0 | 0.00 | 0.00 | 0.00 | 62 | 1005.3 |
| 20260504172508 | 69 | 235 | 0.9 | 5.2 | 0.00 | 0.00 | 0.00 | 63 | 1005.6 |
| 20260504172008 | 68 | 96 | 0.9 | 5.2 | 0.00 | 0.00 | 0.00 | 67 | 1005.7 |
| 20260504171524 | 68 | 153 | 0.9 | 4.3 | 0.00 | 0.00 | 0.00 | 64 | 1005.7 |
| 20260504171013 | 67 | 224 | 1.7 | 4.3 | 0.00 | 0.00 | 0.00 | 64 | 1005.8 |
| 20260504170510 | 67 | 201 | 0.9 | 3.5 | 0.00 | 0.00 | 0.00 | 65 | 1005.9 |
| 20260504151009 | 64 | 133 | 0.9 | 5.2 | 0.00 | 0.00 | 0.00 | 66 | 1006.5 |
| 20260504150511 | 64 | 199 | 0.0 | 4.3 | 0.00 | 0.00 | 0.00 | 65 | 1007.1 |
| 20260504141007 | 66 | 223 | 0.0 | 4.3 | 0.00 | 0.00 | 0.00 | 62 | 1007.2 |
| 20260504140507 | 66 | 228 | 1.7 | 4.3 | 0.00 | 0.00 | 0.00 | 61 | 1007.2 |
| 20260504130509 | 64 | 230 | 1.7 | 4.3 | 0.00 | 0.00 | 0.00 | 65 | 1007.7 |
| 20260504110508 | 58 | 155 | 0.0 | 0.0 | 0.00 | 0.00 | 0.00 | 74 | 1008.1 |
| 20260504100505 | 60 | 227 | 0.0 | 0.0 | 0.00 | 0.00 | 0.00 | 69 | 1008.2 |
| 20260504081521 | 57 | 42 | 0.0 | 0.0 | 0.00 | 0.00 | 0.00 | 77 | 1008.3 |
| 20260504081011 | 58 | 42 | 0.0 | 0.0 | 0.00 | 0.00 | 0.00 | 75 | 1008.4 |
| 20260504080511 | 59 | 42 | 0.0 | 0.0 | 0.00 | 0.00 | 0.00 | 75 | 1008.5 |
| 20260504050511 | 65 | 227 | 0.0 | 1.7 | 0.00 | 0.00 | 0.00 | 59 | 1008.5 |
| 20260504050004 | 65 | 236 | 0.0 | 1.7 | 0.00 | 0.00 | 0.00 | 60 | 1008.4 |
| 20260504045503 | 65 | 231 | 0.0 | 1.7 | 0.00 | 0.00 | 0.00 | 59 | 1008.3 |
| 20260504045003 | 65 | 220 | 0.0 | 1.7 | 0.00 | 0.00 | 0.00 | 59 | 1008.3 |
| 20260504044512 | 65 | 225 | 0.0 | 1.7 | 0.00 | 0.00 | 0.00 | 59 | 1008.3 |
| 20260504044005 | 66 | 266 | 0.0 | 1.7 | 0.00 | 0.00 | 0.00 | 58 | 1008.4 |
| 20260504043503 | 66 | 278 | 0.0 | 3.5 | 0.00 | 0.00 | 0.00 | 57 | 1008.4 |
| 20260504043012 | 67 | 275 | 0.0 | 3.5 | 0.00 | 0.00 | 0.00 | 57 | 1008.5 |
| 20260504042504 | 67 | 257 | 0.9 | 3.5 | 0.00 | 0.00 | 0.00 | 57 | 1008.6 |
| 20260504042008 | 67 | 217 | 0.0 | 2.6 | 0.00 | 0.00 | 0.00 | 57 | 1008.7 |
| 20260504041533 | 67 | 205 | 0.0 | 2.6 | 0.00 | 0.00 | 0.00 | 56 | 1008.9 |
| 20260504041006 | 67 | 275 | 0.0 | 2.6 | 0.00 | 0.00 | 0.00 | 55 | 1009.2 |
| 20260504040509 | 67 | 296 | 0.9 | 5.2 | 0.00 | 0.00 | 0.00 | 55 | 1009.1 |
| 20260504040021 | 68 | 202 | 0.9 | 5.2 | 0.00 | 0.00 | 0.00 | 55 | 1009.0 |
| 20260504035507 | 68 | 269 | 0.0 | 2.6 | 0.00 | 0.00 | 0.00 | 55 | 1009.1 |
| 20260504035009 | 68 | 240 | 0.9 | 2.6 | 0.00 | 0.00 | 0.00 | 55 | 1009.1 |
| 20260504034503 | 68 | 226 | 0.9 | 3.5 | 0.00 | 0.00 | 0.00 | 54 | 1009.2 |
| 20260504034004 | 69 | 259 | 0.0 | 3.5 | 0.00 | 0.00 | 0.00 | 54 | 1008.9 |
| 20260504033504 | 69 | 158 | 0.9 | 2.6 | 0.00 | 0.00 | 0.00 | 54 | 1008.7 |
| 20260504033004 | 69 | 216 | 0.9 | 2.6 | 0.00 | 0.00 | 0.00 | 54 | 1009.1 |
| 20260504032505 | 69 | 214 | 0.9 | 3.5 | 0.00 | 0.00 | 0.00 | 54 | 1009.2 |
| 20260504032003 | 69 | 217 | 0.9 | 3.5 | 0.00 | 0.00 | 0.00 | 54 | 1009.3 |
| 20260504031511 | 68 | 230 | 0.9 | 3.5 | 0.00 | 0.00 | 0.00 | 54 | 1009.3 |
| 20260504031008 | 68 | 181 | 0.0 | 3.5 | 0.00 | 0.00 | 0.00 | 55 | 1009.2 |
| 20260504030507 | 68 | 239 | 0.0 | 1.7 | 0.00 | 0.00 | 0.00 | 55 | 1009.5 |
| 20260504030016 | 69 | 28 | 0.0 | 2.6 | 0.00 | 0.00 | 0.00 | 54 | 1009.4 |
| 20260504025509 | 69 | 120 | 0.0 | 2.6 | 0.00 | 0.00 | 0.00 | 52 | 1009.3 |
| 20260504025006 | 69 | 171 | 0.0 | 2.6 | 0.00 | 0.00 | 0.00 | 52 | 1009.3 |
| 20260504024522 | 69 | 240 | 0.0 | 1.7 | 0.00 | 0.00 | 0.00 | 52 | 1009.2 |
| 20260504024010 | 69 | 189 | 0.0 | 1.7 | 0.00 | 0.00 | 0.00 | 52 | 1009.1 |
| 20260504023509 | 69 | 133 | 0.0 | 1.7 | 0.00 | 0.00 | 0.00 | 53 | 1009.1 |
| 20260504023005 | 69 | 134 | 0.0 | 1.7 | 0.00 | 0.00 | 0.00 | 52 | 1009.3 |
| 20260504022504 | 69 | 210 | 0.0 | 0.9 | 0.00 | 0.00 | 0.00 | 53 | 1009.2 |
| 20260504022004 | 70 | 210 | 0.0 | 0.9 | 0.00 | 0.00 | 0.00 | 51 | 1009.3 |
| 20260504021509 | 70 | 192 | 0.0 | 0.9 | 0.00 | 0.00 | 0.00 | 51 | 1009.3 |
| 20260504021005 | 70 | 175 | 0.0 | 0.9 | 0.00 | 0.00 | 0.00 | 50 | 1009.3 |
| 20260504020504 | 71 | 257 | 0.0 | 0.0 | 0.00 | 0.00 | 0.00 | 51 | 1009.2 |
| 20260504020016 | 70 | 257 | 0.0 | 0.0 | 0.00 | 0.00 | 0.00 | 50 | 1009.2 |
| 20260504015508 | 71 | 257 | 0.0 | 0.0 | 0.00 | 0.00 | 0.00 | 50 | 1009.2 |
| 20260504015007 | 71 | 257 | 0.0 | 0.0 | 0.00 | 0.00 | 0.00 | 48 | 1009.2 |
| 20260504014523 | 72 | 257 | 0.0 | 0.0 | 0.00 | 0.00 | 0.00 | 47 | 1009.1 |
| 20260504014010 | 72 | 257 | 0.0 | 2.6 | 0.00 | 0.00 | 0.00 | 46 | 1009.0 |
| 20260504013511 | 73 | 259 | 0.0 | 3.5 | 0.00 | 0.00 | 0.00 | 46 | 1009.0 |
| 20260504013032 | 73 | 228 | 0.0 | 3.5 | 0.00 | 0.00 | 0.00 | 45 | 1009.0 |
| 20260504012510 | 73 | 284 | 0.0 | 1.7 | 0.00 | 0.00 | 0.00 | 45 | 1009.0 |
| 20260504012011 | 73 | 267 | 0.0 | 1.7 | 0.00 | 0.00 | 0.00 | 44 | 1008.9 |
| 20260504011526 | 73 | 272 | 0.0 | 3.5 | 0.00 | 0.00 | 0.00 | 44 | 1008.8 |
| 20260504011003 | 73 | 225 | 0.9 | 3.5 | 0.00 | 0.00 | 0.00 | 45 | 1008.9 |
| 20260504010503 | 73 | 290 | 0.0 | 1.7 | 0.00 | 0.00 | 0.00 | 46 | 1008.6 |
| 20260504010011 | 73 | 218 | 0.0 | 1.7 | 0.00 | 0.00 | 0.00 | 45 | 1008.4 |
| 20260504005507 | 73 | 218 | 0.0 | 1.7 | 0.00 | 0.00 | 0.00 | 45 | 1008.3 |
| 20260504005007 | 73 | 208 | 0.0 | 1.7 | 0.00 | 0.00 | 0.00 | 44 | 1008.3 |
| 20260504004527 | 73 | 204 | 0.0 | 1.7 | 0.00 | 0.00 | 0.00 | 44 | 1008.5 |
| 20260504004008 | 74 | 223 | 0.0 | 1.7 | 0.00 | 0.00 | 0.00 | 43 | 1008.3 |
| 20260504003510 | 74 | 230 | 0.0 | 1.7 | 0.00 | 0.00 | 0.00 | 43 | 1008.3 |
| 20260504003022 | 75 | 228 | 0.0 | 1.7 | 0.00 | 0.00 | 0.00 | 41 | 1008.4 |
| 20260504002508 | 75 | 236 | 0.0 | 1.7 | 0.00 | 0.00 | 0.00 | 41 | 1008.4 |
| 20260504002010 | 75 | 218 | 0.9 | 1.7 | 0.00 | 0.00 | 0.00 | 41 | 1008.3 |
| 20260504001530 | 75 | 252 | 0.0 | 1.7 | 0.00 | 0.00 | 0.00 | 42 | 1008.4 |
| 20260504001010 | 75 | 205 | 0.0 | 2.6 | 0.00 | 0.00 | 0.00 | 41 | 1008.5 |
| 20260504000511 | 75 | 251 | 0.9 | 1.7 | 0.00 | 0.00 | 0.00 | 41 | 1008.5 |
| 20260504000009 | 76 | 215 | 0.9 | 2.6 | 0.00 | 0.00 | 0.00 | 39 | 1008.5 |
| 20260503235506 | 76 | 230 | 0.0 | 3.5 | 0.00 | 0.00 | 0.00 | 40 | 1008.6 |
| 20260503235004 | 76 | 247 | 0.0 | 3.5 | 0.00 | 0.00 | 0.00 | 39 | 1008.5 |
| 20260503234516 | 76 | 225 | 1.7 | 5.2 | 0.00 | 0.00 | 0.00 | 38 | 1008.6 |
| 20260503234008 | 76 | 275 | 0.9 | 5.2 | 0.00 | 0.00 | 0.00 | 39 | 1008.6 |
| 20260503233510 | 76 | 240 | 1.7 | 5.2 | 0.00 | 0.00 | 0.00 | 39 | 1008.6 |
| 20260503233020 | 76 | 223 | 1.7 | 3.5 | 0.00 | 0.00 | 0.00 | 39 | 1008.6 |
| 20260503232512 | 77 | 201 | 0.9 | 3.5 | 0.00 | 0.00 | 0.00 | 39 | 1008.7 |
| 20260503232008 | 77 | 205 | 0.9 | 3.5 | 0.00 | 0.00 | 0.00 | 38 | 1008.7 |
| 20260503231526 | 77 | 146 | 0.9 | 3.5 | 0.00 | 0.00 | 0.00 | 37 | 1008.8 |
| 20260503231010 | 76 | 217 | 0.9 | 7.0 | 0.00 | 0.00 | 0.00 | 36 | 1008.8 |
| 20260503230509 | 77 | 221 | 2.6 | 7.8 | 0.00 | 0.00 | 0.00 | 36 | 1008.8 |
| 20260503230036 | 76 | 236 | 0.9 | 7.8 | 0.00 | 0.00 | 0.00 | 37 | 1008.8 |
| 20260503225503 | 77 | 246 | 1.7 | 7.0 | 0.00 | 0.00 | 0.00 | 35 | 1008.9 |
| 20260503225004 | 78 | 215 | 1.7 | 4.3 | 0.00 | 0.00 | 0.00 | 35 | 1008.9 |
| 20260503224512 | 78 | 232 | 1.7 | 7.8 | 0.00 | 0.00 | 0.00 | 35 | 1009.0 |
| 20260503224004 | 78 | 244 | 1.7 | 11.3 | 0.00 | 0.00 | 0.00 | 35 | 1009.0 |
| 20260503223504 | 78 | 243 | 5.2 | 11.3 | 0.00 | 0.00 | 0.00 | 34 | 1009.0 |
| 20260503223012 | 78 | 240 | 1.7 | 8.7 | 0.00 | 0.00 | 0.00 | 35 | 1009.1 |
| 20260503222504 | 78 | 204 | 1.7 | 8.7 | 0.00 | 0.00 | 0.00 | 35 | 1009.1 |
| 20260503222005 | 78 | 234 | 3.5 | 8.7 | 0.00 | 0.00 | 0.00 | 34 | 1009.1 |
| 20260503221511 | 78 | 219 | 1.7 | 6.1 | 0.00 | 0.00 | 0.00 | 36 | 1009.1 |